sensor_id;sensor_type;location;lat;lon;timestamp;temperature;humidity
21473;DHT22;10898;48.072;11.682;2022-10-16T00:01:12;13.30;99.90
21473;DHT22;10898;48.072;11.682;2022-10-16T00:03:14;13.30;99.90
21473;DHT22;10898;48.072;11.682;2022-10-16T00:05:15;13.30;99.90
21473;DHT22;10898;48.072;11.682;2022-10-16T00:07:17;13.30;99.90
21473;DHT22;10898;48.072;11.682;2022-10-16T00:09:19;13.20;99.90
21473;DHT22;10898;48.072;11.682;2022-10-16T00:11:28;13.20;99.90
21473;DHT22;10898;48.072;11.682;2022-10-16T00:13:30;13.20;99.90
21473;DHT22;10898;48.072;11.682;2022-10-16T00:15:35;13.20;99.90
21473;DHT22;10898;48.072;11.682;2022-10-16T00:17:37;13.20;99.90
21473;DHT22;10898;48.072;11.682;2022-10-16T00:19:39;13.10;99.90
21473;DHT22;10898;48.072;11.682;2022-10-16T00:21:41;13.10;99.90
21473;DHT22;10898;48.072;11.682;2022-10-16T00:23:43;13.10;99.90
21473;DHT22;10898;48.072;11.682;2022-10-16T00:25:44;13.10;99.90
21473;DHT22;10898;48.072;11.682;2022-10-16T00:27:46;13.10;99.90
21473;DHT22;10898;48.072;11.682;2022-10-16T00:29:51;13.00;99.90
21473;DHT22;10898;48.072;11.682;2022-10-16T00:31:53;13.00;99.90
21473;DHT22;10898;48.072;11.682;2022-10-16T00:33:55;13.00;99.90
21473;DHT22;10898;48.072;11.682;2022-10-16T00:35:58;12.90;99.90
21473;DHT22;10898;48.072;11.682;2022-10-16T00:38:00;12.90;99.90
21473;DHT22;10898;48.072;11.682;2022-10-16T00:40:01;12.90;99.90
21473;DHT22;10898;48.072;11.682;2022-10-16T00:42:03;12.90;99.90
21473;DHT22;10898;48.072;11.682;2022-10-16T00:44:41;12.80;99.90
21473;DHT22;10898;48.072;11.682;2022-10-16T00:48:31;12.80;99.90
21473;DHT22;10898;48.072;11.682;2022-10-16T00:50:33;12.80;99.90
21473;DHT22;10898;48.072;11.682;2022-10-16T00:52:35;12.70;99.90
21473;DHT22;10898;48.072;11.682;2022-10-16T00:54:38;12.70;99.90
21473;DHT22;10898;48.072;11.682;2022-10-16T00:56:40;12.70;99.90
21473;DHT22;10898;48.072;11.682;2022-10-16T00:58:41;12.70;99.90
21473;DHT22;10898;48.072;11.682;2022-10-16T01:00:43;12.70;99.90
21473;DHT22;10898;48.072;11.682;2022-10-16T01:02:51;12.70;99.90
21473;DHT22;10898;48.072;11.682;2022-10-16T01:04:53;12.70;99.90
21473;DHT22;10898;48.072;11.682;2022-10-16T01:11:19;12.60;99.90
21473;DHT22;10898;48.072;11.682;2022-10-16T01:13:27;12.60;99.90
21473;DHT22;10898;48.072;11.682;2022-10-16T01:15:37;12.60;99.90
21473;DHT22;10898;48.072;11.682;2022-10-16T01:18:30;12.70;99.90
21473;DHT22;10898;48.072;11.682;2022-10-16T01:22:25;12.60;99.90
21473;DHT22;10898;48.072;11.682;2022-10-16T01:28:45;12.60;99.90
21473;DHT22;10898;48.072;11.682;2022-10-16T01:30:49;12.60;99.90
21473;DHT22;10898;48.072;11.682;2022-10-16T01:34:55;12.60;99.90
21473;DHT22;10898;48.072;11.682;2022-10-16T01:37:03;12.60;99.90
21473;DHT22;10898;48.072;11.682;2022-10-16T01:39:06;12.60;99.90
21473;DHT22;10898;48.072;11.682;2022-10-16T01:41:24;12.60;99.90
21473;DHT22;10898;48.072;11.682;2022-10-16T01:43:33;12.50;99.90
21473;DHT22;10898;48.072;11.682;2022-10-16T01:45:36;12.50;99.90
21473;DHT22;10898;48.072;11.682;2022-10-16T01:47:38;12.50;99.90
21473;DHT22;10898;48.072;11.682;2022-10-16T01:49:40;12.50;99.90
21473;DHT22;10898;48.072;11.682;2022-10-16T01:51:43;12.50;99.90
21473;DHT22;10898;48.072;11.682;2022-10-16T01:53:47;12.40;99.90
21473;DHT22;10898;48.072;11.682;2022-10-16T01:55:49;12.40;99.90
21473;DHT22;10898;48.072;11.682;2022-10-16T01:57:53;12.40;99.90
21473;DHT22;10898;48.072;11.682;2022-10-16T01:59:56;12.40;99.90
21473;DHT22;10898;48.072;11.682;2022-10-16T02:02:00;12.30;99.90
21473;DHT22;10898;48.072;11.682;2022-10-16T02:04:26;12.40;99.90
21473;DHT22;10898;48.072;11.682;2022-10-16T02:06:24;12.30;99.90
21473;DHT22;10898;48.072;11.682;2022-10-16T02:08:27;12.30;99.90
21473;DHT22;10898;48.072;11.682;2022-10-16T02:10:30;12.30;99.90
21473;DHT22;10898;48.072;11.682;2022-10-16T02:12:33;12.30;99.90
21473;DHT22;10898;48.072;11.682;2022-10-16T02:14:37;12.20;99.90
21473;DHT22;10898;48.072;11.682;2022-10-16T02:16:43;12.20;99.90
21473;DHT22;10898;48.072;11.682;2022-10-16T02:18:46;12.20;99.90
21473;DHT22;10898;48.072;11.682;2022-10-16T02:20:52;12.20;99.90
21473;DHT22;10898;48.072;11.682;2022-10-16T02:22:56;12.20;99.90
21473;DHT22;10898;48.072;11.682;2022-10-16T02:25:06;12.20;99.90
21473;DHT22;10898;48.072;11.682;2022-10-16T02:27:25;12.20;99.90
21473;DHT22;10898;48.072;11.682;2022-10-16T02:29:28;12.20;99.90
21473;DHT22;10898;48.072;11.682;2022-10-16T02:31:30;12.20;99.90
21473;DHT22;10898;48.072;11.682;2022-10-16T02:33:33;12.20;99.90
21473;DHT22;10898;48.072;11.682;2022-10-16T02:35:36;12.10;99.90
21473;DHT22;10898;48.072;11.682;2022-10-16T02:37:38;12.20;99.90
21473;DHT22;10898;48.072;11.682;2022-10-16T02:39:41;12.20;99.90
21473;DHT22;10898;48.072;11.682;2022-10-16T02:41:43;12.20;99.90
21473;DHT22;10898;48.072;11.682;2022-10-16T02:43:45;12.20;99.90
21473;DHT22;10898;48.072;11.682;2022-10-16T02:45:46;12.20;99.90
21473;DHT22;10898;48.072;11.682;2022-10-16T02:47:48;12.10;99.90
21473;DHT22;10898;48.072;11.682;2022-10-16T02:49:50;12.10;99.90
21473;DHT22;10898;48.072;11.682;2022-10-16T02:51:51;12.10;99.90
21473;DHT22;10898;48.072;11.682;2022-10-16T02:53:53;12.10;99.90
21473;DHT22;10898;48.072;11.682;2022-10-16T02:55:55;12.10;99.90
21473;DHT22;10898;48.072;11.682;2022-10-16T02:57:56;12.10;99.90
21473;DHT22;10898;48.072;11.682;2022-10-16T02:59:58;12.10;99.90
21473;DHT22;10898;48.072;11.682;2022-10-16T03:02:00;12.00;99.90
21473;DHT22;10898;48.072;11.682;2022-10-16T03:04:01;12.10;99.90
21473;DHT22;10898;48.072;11.682;2022-10-16T03:06:03;12.10;99.90
21473;DHT22;10898;48.072;11.682;2022-10-16T03:08:05;12.00;99.90
21473;DHT22;10898;48.072;11.682;2022-10-16T03:10:07;12.20;99.90
21473;DHT22;10898;48.072;11.682;2022-10-16T03:12:08;12.00;99.90
21473;DHT22;10898;48.072;11.682;2022-10-16T03:14:10;12.10;99.90
21473;DHT22;10898;48.072;11.682;2022-10-16T03:16:12;12.00;99.90
21473;DHT22;10898;48.072;11.682;2022-10-16T03:18:14;12.00;99.90
21473;DHT22;10898;48.072;11.682;2022-10-16T03:20:16;12.10;99.90
21473;DHT22;10898;48.072;11.682;2022-10-16T03:22:17;12.00;99.90
21473;DHT22;10898;48.072;11.682;2022-10-16T03:24:19;12.00;99.90
21473;DHT22;10898;48.072;11.682;2022-10-16T03:26:21;12.00;99.90
21473;DHT22;10898;48.072;11.682;2022-10-16T03:28:22;12.00;99.90
21473;DHT22;10898;48.072;11.682;2022-10-16T03:30:24;11.90;99.90
21473;DHT22;10898;48.072;11.682;2022-10-16T03:32:26;12.00;99.90
21473;DHT22;10898;48.072;11.682;2022-10-16T03:34:30;12.00;99.90
21473;DHT22;10898;48.072;11.682;2022-10-16T03:36:31;11.90;99.90
21473;DHT22;10898;48.072;11.682;2022-10-16T03:38:33;12.00;99.90
21473;DHT22;10898;48.072;11.682;2022-10-16T03:40:35;12.00;99.90
21473;DHT22;10898;48.072;11.682;2022-10-16T03:42:36;11.90;99.90
21473;DHT22;10898;48.072;11.682;2022-10-16T03:44:38;12.00;99.90
21473;DHT22;10898;48.072;11.682;2022-10-16T03:46:40;11.90;99.90
21473;DHT22;10898;48.072;11.682;2022-10-16T03:48:41;11.90;99.90
21473;DHT22;10898;48.072;11.682;2022-10-16T03:50:43;12.00;99.90
21473;DHT22;10898;48.072;11.682;2022-10-16T03:52:45;11.90;99.90
21473;DHT22;10898;48.072;11.682;2022-10-16T03:54:46;12.00;99.90
21473;DHT22;10898;48.072;11.682;2022-10-16T03:56:48;12.00;99.90
21473;DHT22;10898;48.072;11.682;2022-10-16T03:58:50;12.00;99.90
21473;DHT22;10898;48.072;11.682;2022-10-16T04:00:51;12.00;99.90
21473;DHT22;10898;48.072;11.682;2022-10-16T04:02:53;12.00;99.90
21473;DHT22;10898;48.072;11.682;2022-10-16T04:04:55;12.10;99.90
21473;DHT22;10898;48.072;11.682;2022-10-16T04:06:57;12.10;99.90
21473;DHT22;10898;48.072;11.682;2022-10-16T04:08:58;12.10;99.90
21473;DHT22;10898;48.072;11.682;2022-10-16T04:11:00;12.10;99.90
21473;DHT22;10898;48.072;11.682;2022-10-16T04:13:02;12.10;99.90
21473;DHT22;10898;48.072;11.682;2022-10-16T04:15:04;12.10;99.90
21473;DHT22;10898;48.072;11.682;2022-10-16T04:17:06;12.10;99.90
21473;DHT22;10898;48.072;11.682;2022-10-16T04:19:08;12.20;99.90
21473;DHT22;10898;48.072;11.682;2022-10-16T04:21:10;12.20;99.90
21473;DHT22;10898;48.072;11.682;2022-10-16T04:23:12;12.20;99.90
21473;DHT22;10898;48.072;11.682;2022-10-16T04:25:13;12.20;99.90
21473;DHT22;10898;48.072;11.682;2022-10-16T04:27:15;12.20;99.90
21473;DHT22;10898;48.072;11.682;2022-10-16T04:29:17;12.20;99.90
21473;DHT22;10898;48.072;11.682;2022-10-16T04:31:18;12.30;99.90
21473;DHT22;10898;48.072;11.682;2022-10-16T04:33:20;12.30;99.90
21473;DHT22;10898;48.072;11.682;2022-10-16T04:35:22;12.30;99.90
21473;DHT22;10898;48.072;11.682;2022-10-16T04:37:24;12.30;99.90
21473;DHT22;10898;48.072;11.682;2022-10-16T04:39:27;12.30;99.90
21473;DHT22;10898;48.072;11.682;2022-10-16T04:41:28;12.40;99.90
21473;DHT22;10898;48.072;11.682;2022-10-16T04:43:30;12.40;99.90
21473;DHT22;10898;48.072;11.682;2022-10-16T04:45:32;12.40;99.90
21473;DHT22;10898;48.072;11.682;2022-10-16T04:47:33;12.50;99.90
21473;DHT22;10898;48.072;11.682;2022-10-16T04:49:35;12.50;99.90
21473;DHT22;10898;48.072;11.682;2022-10-16T04:51:36;12.50;99.90
21473;DHT22;10898;48.072;11.682;2022-10-16T04:53:38;12.50;99.90
21473;DHT22;10898;48.072;11.682;2022-10-16T04:55:40;12.80;99.90
21473;DHT22;10898;48.072;11.682;2022-10-16T04:57:42;12.60;99.90
21473;DHT22;10898;48.072;11.682;2022-10-16T04:59:44;12.60;99.90
21473;DHT22;10898;48.072;11.682;2022-10-16T05:01:45;12.60;99.90
21473;DHT22;10898;48.072;11.682;2022-10-16T05:03:47;12.60;99.90
21473;DHT22;10898;48.072;11.682;2022-10-16T05:05:49;12.60;99.90
21473;DHT22;10898;48.072;11.682;2022-10-16T05:07:51;12.60;99.90
21473;DHT22;10898;48.072;11.682;2022-10-16T05:09:52;12.70;99.90
21473;DHT22;10898;48.072;11.682;2022-10-16T05:11:54;12.60;99.90
21473;DHT22;10898;48.072;11.682;2022-10-16T05:13:56;12.70;99.90
21473;DHT22;10898;48.072;11.682;2022-10-16T05:15:58;12.70;99.90
21473;DHT22;10898;48.072;11.682;2022-10-16T05:17:59;12.70;99.90
21473;DHT22;10898;48.072;11.682;2022-10-16T05:20:02;12.70;99.90
21473;DHT22;10898;48.072;11.682;2022-10-16T05:22:04;12.80;99.90
21473;DHT22;10898;48.072;11.682;2022-10-16T05:24:06;12.80;99.90
21473;DHT22;10898;48.072;11.682;2022-10-16T05:26:08;12.80;99.90
21473;DHT22;10898;48.072;11.682;2022-10-16T05:28:10;12.80;99.90
21473;DHT22;10898;48.072;11.682;2022-10-16T05:30:11;12.80;99.90
21473;DHT22;10898;48.072;11.682;2022-10-16T05:32:13;12.80;99.90
21473;DHT22;10898;48.072;11.682;2022-10-16T05:34:15;12.80;99.90
21473;DHT22;10898;48.072;11.682;2022-10-16T05:36:17;12.80;99.90
21473;DHT22;10898;48.072;11.682;2022-10-16T05:38:19;12.80;99.90
21473;DHT22;10898;48.072;11.682;2022-10-16T05:40:21;12.80;99.90
21473;DHT22;10898;48.072;11.682;2022-10-16T05:42:23;12.80;99.90
21473;DHT22;10898;48.072;11.682;2022-10-16T05:44:24;12.90;99.90
21473;DHT22;10898;48.072;11.682;2022-10-16T05:46:26;12.90;99.90
21473;DHT22;10898;48.072;11.682;2022-10-16T05:48:27;12.90;99.90
21473;DHT22;10898;48.072;11.682;2022-10-16T05:50:29;12.90;99.90
21473;DHT22;10898;48.072;11.682;2022-10-16T05:52:31;12.90;99.90
21473;DHT22;10898;48.072;11.682;2022-10-16T05:54:33;12.90;99.90
21473;DHT22;10898;48.072;11.682;2022-10-16T05:56:34;12.90;99.90
21473;DHT22;10898;48.072;11.682;2022-10-16T05:58:36;12.90;99.90
21473;DHT22;10898;48.072;11.682;2022-10-16T06:00:38;12.90;99.90
21473;DHT22;10898;48.072;11.682;2022-10-16T06:02:40;12.90;99.90
21473;DHT22;10898;48.072;11.682;2022-10-16T06:04:42;12.90;99.90
21473;DHT22;10898;48.072;11.682;2022-10-16T06:06:43;12.90;99.90
21473;DHT22;10898;48.072;11.682;2022-10-16T06:08:45;12.90;99.90
21473;DHT22;10898;48.072;11.682;2022-10-16T06:10:47;12.90;99.90
21473;DHT22;10898;48.072;11.682;2022-10-16T06:12:48;12.90;99.90
21473;DHT22;10898;48.072;11.682;2022-10-16T06:14:50;12.90;99.90
21473;DHT22;10898;48.072;11.682;2022-10-16T06:16:52;12.90;99.90
21473;DHT22;10898;48.072;11.682;2022-10-16T06:18:54;13.00;99.90
21473;DHT22;10898;48.072;11.682;2022-10-16T06:20:57;13.00;99.90
21473;DHT22;10898;48.072;11.682;2022-10-16T06:22:59;13.00;99.90
21473;DHT22;10898;48.072;11.682;2022-10-16T06:25:01;13.00;99.90
21473;DHT22;10898;48.072;11.682;2022-10-16T06:27:03;13.00;99.90
21473;DHT22;10898;48.072;11.682;2022-10-16T06:29:05;13.00;99.90
21473;DHT22;10898;48.072;11.682;2022-10-16T06:31:07;13.10;99.90
21473;DHT22;10898;48.072;11.682;2022-10-16T06:33:10;13.10;99.90
21473;DHT22;10898;48.072;11.682;2022-10-16T06:35:12;13.10;99.90
21473;DHT22;10898;48.072;11.682;2022-10-16T06:37:13;13.20;99.90
21473;DHT22;10898;48.072;11.682;2022-10-16T06:39:15;13.20;99.90
21473;DHT22;10898;48.072;11.682;2022-10-16T06:41:17;13.20;99.90
21473;DHT22;10898;48.072;11.682;2022-10-16T06:43:19;13.20;99.90
21473;DHT22;10898;48.072;11.682;2022-10-16T06:45:21;13.30;99.90
21473;DHT22;10898;48.072;11.682;2022-10-16T06:47:23;13.30;99.90
21473;DHT22;10898;48.072;11.682;2022-10-16T06:49:25;13.30;99.90
21473;DHT22;10898;48.072;11.682;2022-10-16T06:51:26;13.40;99.90
21473;DHT22;10898;48.072;11.682;2022-10-16T06:53:29;13.40;99.90
21473;DHT22;10898;48.072;11.682;2022-10-16T06:55:44;13.40;99.90
21473;DHT22;10898;48.072;11.682;2022-10-16T06:57:49;13.40;99.90
21473;DHT22;10898;48.072;11.682;2022-10-16T06:59:50;13.40;99.90
21473;DHT22;10898;48.072;11.682;2022-10-16T07:01:55;13.50;99.90
21473;DHT22;10898;48.072;11.682;2022-10-16T07:03:57;13.50;99.90
21473;DHT22;10898;48.072;11.682;2022-10-16T07:06:05;13.50;99.90
21473;DHT22;10898;48.072;11.682;2022-10-16T07:08:07;13.50;99.90
21473;DHT22;10898;48.072;11.682;2022-10-16T07:10:09;13.50;99.90
21473;DHT22;10898;48.072;11.682;2022-10-16T07:12:11;13.60;99.90
21473;DHT22;10898;48.072;11.682;2022-10-16T07:14:16;13.60;99.90
21473;DHT22;10898;48.072;11.682;2022-10-16T07:16:19;13.60;99.90
21473;DHT22;10898;48.072;11.682;2022-10-16T07:18:21;13.70;99.90
21473;DHT22;10898;48.072;11.682;2022-10-16T07:20:23;13.70;99.90
21473;DHT22;10898;48.072;11.682;2022-10-16T07:22:25;13.70;99.90
21473;DHT22;10898;48.072;11.682;2022-10-16T07:24:27;13.80;99.90
21473;DHT22;10898;48.072;11.682;2022-10-16T07:26:29;13.80;99.90
21473;DHT22;10898;48.072;11.682;2022-10-16T07:28:32;14.00;99.90
21473;DHT22;10898;48.072;11.682;2022-10-16T07:30:34;14.00;99.90
21473;DHT22;10898;48.072;11.682;2022-10-16T07:32:36;14.00;99.90
21473;DHT22;10898;48.072;11.682;2022-10-16T07:34:38;14.10;99.90
21473;DHT22;10898;48.072;11.682;2022-10-16T07:36:40;14.10;99.90
21473;DHT22;10898;48.072;11.682;2022-10-16T07:38:42;14.20;99.90
21473;DHT22;10898;48.072;11.682;2022-10-16T07:40:44;14.30;99.90
21473;DHT22;10898;48.072;11.682;2022-10-16T07:42:46;14.40;99.90
21473;DHT22;10898;48.072;11.682;2022-10-16T07:44:48;14.50;99.90
21473;DHT22;10898;48.072;11.682;2022-10-16T07:46:49;14.50;99.90
21473;DHT22;10898;48.072;11.682;2022-10-16T07:48:51;14.60;99.90
21473;DHT22;10898;48.072;11.682;2022-10-16T07:50:56;14.70;99.90
21473;DHT22;10898;48.072;11.682;2022-10-16T07:52:58;14.80;99.90
21473;DHT22;10898;48.072;11.682;2022-10-16T07:55:00;14.90;99.90
21473;DHT22;10898;48.072;11.682;2022-10-16T07:57:02;14.90;99.90
21473;DHT22;10898;48.072;11.682;2022-10-16T07:59:03;15.00;99.90
21473;DHT22;10898;48.072;11.682;2022-10-16T08:01:09;15.10;99.90
21473;DHT22;10898;48.072;11.682;2022-10-16T08:03:11;15.20;99.90
21473;DHT22;10898;48.072;11.682;2022-10-16T08:05:12;15.20;99.90
21473;DHT22;10898;48.072;11.682;2022-10-16T08:07:14;15.30;99.90
21473;DHT22;10898;48.072;11.682;2022-10-16T08:09:16;15.40;99.90
21473;DHT22;10898;48.072;11.682;2022-10-16T08:11:17;15.50;99.90
21473;DHT22;10898;48.072;11.682;2022-10-16T08:13:19;15.60;99.90
21473;DHT22;10898;48.072;11.682;2022-10-16T08:15:21;15.70;99.90
21473;DHT22;10898;48.072;11.682;2022-10-16T08:17:23;15.80;99.90
21473;DHT22;10898;48.072;11.682;2022-10-16T08:19:25;15.80;99.90
21473;DHT22;10898;48.072;11.682;2022-10-16T08:21:27;15.90;99.90
21473;DHT22;10898;48.072;11.682;2022-10-16T08:23:28;16.00;99.90
21473;DHT22;10898;48.072;11.682;2022-10-16T08:25:30;16.10;99.90
21473;DHT22;10898;48.072;11.682;2022-10-16T08:27:32;16.20;99.90
21473;DHT22;10898;48.072;11.682;2022-10-16T08:29:33;16.30;99.90
21473;DHT22;10898;48.072;11.682;2022-10-16T08:31:35;16.40;99.90
21473;DHT22;10898;48.072;11.682;2022-10-16T08:33:37;16.50;99.90
21473;DHT22;10898;48.072;11.682;2022-10-16T08:35:39;16.60;99.90
21473;DHT22;10898;48.072;11.682;2022-10-16T08:37:41;16.70;99.90
21473;DHT22;10898;48.072;11.682;2022-10-16T08:39:43;16.80;99.90
21473;DHT22;10898;48.072;11.682;2022-10-16T08:48:26;17.10;99.90
21473;DHT22;10898;48.072;11.682;2022-10-16T08:50:31;17.20;99.90
21473;DHT22;10898;48.072;11.682;2022-10-16T08:52:34;17.30;99.90
21473;DHT22;10898;48.072;11.682;2022-10-16T08:54:43;17.40;99.90
21473;DHT22;10898;48.072;11.682;2022-10-16T08:56:46;17.40;99.90
21473;DHT22;10898;48.072;11.682;2022-10-16T08:58:48;17.50;99.90
21473;DHT22;10898;48.072;11.682;2022-10-16T09:00:51;17.60;99.90
21473;DHT22;10898;48.072;11.682;2022-10-16T09:05:17;17.70;99.90
21473;DHT22;10898;48.072;11.682;2022-10-16T09:14:00;18.10;99.90
21473;DHT22;10898;48.072;11.682;2022-10-16T09:18:11;18.30;99.90
21473;DHT22;10898;48.072;11.682;2022-10-16T09:22:36;18.50;99.90
21473;DHT22;10898;48.072;11.682;2022-10-16T09:24:37;18.60;99.90
21473;DHT22;10898;48.072;11.682;2022-10-16T09:26:39;18.80;99.90
21473;DHT22;10898;48.072;11.682;2022-10-16T09:28:41;18.90;99.90
21473;DHT22;10898;48.072;11.682;2022-10-16T09:30:42;19.00;99.90
21473;DHT22;10898;48.072;11.682;2022-10-16T09:32:45;19.10;99.90
21473;DHT22;10898;48.072;11.682;2022-10-16T09:34:49;19.20;99.90
21473;DHT22;10898;48.072;11.682;2022-10-16T09:36:52;19.20;99.90
21473;DHT22;10898;48.072;11.682;2022-10-16T09:39:06;19.30;99.90
21473;DHT22;10898;48.072;11.682;2022-10-16T09:41:21;19.40;99.90
21473;DHT22;10898;48.072;11.682;2022-10-16T09:43:24;19.50;99.90
21473;DHT22;10898;48.072;11.682;2022-10-16T09:45:28;19.60;99.90
21473;DHT22;10898;48.072;11.682;2022-10-16T09:47:30;19.60;99.90
21473;DHT22;10898;48.072;11.682;2022-10-16T09:49:32;19.60;99.90
21473;DHT22;10898;48.072;11.682;2022-10-16T09:51:34;19.70;99.90
21473;DHT22;10898;48.072;11.682;2022-10-16T09:55:47;19.80;99.90
21473;DHT22;10898;48.072;11.682;2022-10-16T09:57:50;19.90;99.90
21473;DHT22;10898;48.072;11.682;2022-10-16T09:59:52;20.00;99.90
21473;DHT22;10898;48.072;11.682;2022-10-16T10:01:54;20.00;99.90
21473;DHT22;10898;48.072;11.682;2022-10-16T10:03:57;20.10;99.90
21473;DHT22;10898;48.072;11.682;2022-10-16T10:06:22;20.10;99.90
21473;DHT22;10898;48.072;11.682;2022-10-16T10:08:24;20.20;99.90
21473;DHT22;10898;48.072;11.682;2022-10-16T10:10:27;20.30;99.90
21473;DHT22;10898;48.072;11.682;2022-10-16T10:12:29;20.40;99.90
21473;DHT22;10898;48.072;11.682;2022-10-16T10:16:37;20.50;99.90
21473;DHT22;10898;48.072;11.682;2022-10-16T10:18:39;20.50;99.90
21473;DHT22;10898;48.072;11.682;2022-10-16T10:20:41;20.60;99.90
21473;DHT22;10898;48.072;11.682;2022-10-16T10:22:43;20.60;99.90
21473;DHT22;10898;48.072;11.682;2022-10-16T10:27:04;20.70;99.90
21473;DHT22;10898;48.072;11.682;2022-10-16T10:33:38;20.90;99.90
21473;DHT22;10898;48.072;11.682;2022-10-16T10:38:29;21.00;99.90
21473;DHT22;10898;48.072;11.682;2022-10-16T10:40:16;21.00;99.90
21473;DHT22;10898;48.072;11.682;2022-10-16T10:42:44;21.00;99.90
21473;DHT22;10898;48.072;11.682;2022-10-16T10:51:20;21.30;99.90
21473;DHT22;10898;48.072;11.682;2022-10-16T10:53:40;21.30;99.90
21473;DHT22;10898;48.072;11.682;2022-10-16T10:55:45;21.40;99.90
21473;DHT22;10898;48.072;11.682;2022-10-16T11:08:35;21.70;99.70
21473;DHT22;10898;48.072;11.682;2022-10-16T11:10:52;21.80;99.90
21473;DHT22;10898;48.072;11.682;2022-10-16T11:12:57;21.80;93.20
21473;DHT22;10898;48.072;11.682;2022-10-16T11:21:20;22.10;97.50
21473;DHT22;10898;48.072;11.682;2022-10-16T11:25:32;22.10;94.60
21473;DHT22;10898;48.072;11.682;2022-10-16T11:27:42;22.10;95.30
21473;DHT22;10898;48.072;11.682;2022-10-16T11:29:50;22.10;93.80
21473;DHT22;10898;48.072;11.682;2022-10-16T11:31:57;22.20;93.60
21473;DHT22;10898;48.072;11.682;2022-10-16T11:34:04;22.20;92.10
21473;DHT22;10898;48.072;11.682;2022-10-16T11:36:11;22.20;92.70
21473;DHT22;10898;48.072;11.682;2022-10-16T11:38:16;22.30;92.50
21473;DHT22;10898;48.072;11.682;2022-10-16T11:40:24;22.30;91.40
21473;DHT22;10898;48.072;11.682;2022-10-16T11:42:30;22.40;90.80
21473;DHT22;10898;48.072;11.682;2022-10-16T11:46:59;22.50;89.80
21473;DHT22;10898;48.072;11.682;2022-10-16T11:49:24;22.50;87.50
21473;DHT22;10898;48.072;11.682;2022-10-16T11:51:31;22.60;89.10
21473;DHT22;10898;48.072;11.682;2022-10-16T11:53:45;22.60;89.80
21473;DHT22;10898;48.072;11.682;2022-10-16T11:55:47;22.60;86.40
21473;DHT22;10898;48.072;11.682;2022-10-16T11:57:50;22.70;83.40
21473;DHT22;10898;48.072;11.682;2022-10-16T12:00:06;22.70;87.40
21473;DHT22;10898;48.072;11.682;2022-10-16T12:04:33;22.70;85.30
21473;DHT22;10898;48.072;11.682;2022-10-16T12:06:37;22.70;82.80
21473;DHT22;10898;48.072;11.682;2022-10-16T12:08:42;22.70;84.30
21473;DHT22;10898;48.072;11.682;2022-10-16T12:10:45;22.80;83.90
21473;DHT22;10898;48.072;11.682;2022-10-16T12:12:47;22.80;83.40
21473;DHT22;10898;48.072;11.682;2022-10-16T12:14:59;22.90;81.00
21473;DHT22;10898;48.072;11.682;2022-10-16T12:19:23;22.90;79.40
21473;DHT22;10898;48.072;11.682;2022-10-16T12:21:29;23.00;81.80
21473;DHT22;10898;48.072;11.682;2022-10-16T12:23:32;23.00;82.80
21473;DHT22;10898;48.072;11.682;2022-10-16T12:25:34;23.00;84.00
21473;DHT22;10898;48.072;11.682;2022-10-16T12:27:36;23.10;81.30
21473;DHT22;10898;48.072;11.682;2022-10-16T12:29:39;23.10;80.60
21473;DHT22;10898;48.072;11.682;2022-10-16T12:31:45;23.20;79.40
21473;DHT22;10898;48.072;11.682;2022-10-16T12:33:59;23.20;79.80
21473;DHT22;10898;48.072;11.682;2022-10-16T12:36:03;23.20;82.40
21473;DHT22;10898;48.072;11.682;2022-10-16T12:38:07;23.40;78.60
21473;DHT22;10898;48.072;11.682;2022-10-16T12:40:13;23.40;79.70
21473;DHT22;10898;48.072;11.682;2022-10-16T12:44:31;23.60;75.00
21473;DHT22;10898;48.072;11.682;2022-10-16T12:46:35;23.60;74.40
21473;DHT22;10898;48.072;11.682;2022-10-16T12:48:39;23.60;74.40
21473;DHT22;10898;48.072;11.682;2022-10-16T12:50:55;23.70;74.30
21473;DHT22;10898;48.072;11.682;2022-10-16T12:52:58;23.70;73.90
21473;DHT22;10898;48.072;11.682;2022-10-16T12:55:00;23.70;74.60
21473;DHT22;10898;48.072;11.682;2022-10-16T13:01:33;23.60;76.90
21473;DHT22;10898;48.072;11.682;2022-10-16T13:10:18;23.70;75.80
21473;DHT22;10898;48.072;11.682;2022-10-16T13:23:46;23.80;76.00
21473;DHT22;10898;48.072;11.682;2022-10-16T13:26:01;23.80;74.40
21473;DHT22;10898;48.072;11.682;2022-10-16T13:28:09;23.80;74.20
21473;DHT22;10898;48.072;11.682;2022-10-16T13:32:14;23.70;74.00
21473;DHT22;10898;48.072;11.682;2022-10-16T13:34:20;23.80;74.30
21473;DHT22;10898;48.072;11.682;2022-10-16T13:36:23;23.70;74.20
21473;DHT22;10898;48.072;11.682;2022-10-16T13:38:27;23.70;74.40
21473;DHT22;10898;48.072;11.682;2022-10-16T13:40:29;23.70;74.20
21473;DHT22;10898;48.072;11.682;2022-10-16T13:42:30;23.70;74.40
21473;DHT22;10898;48.072;11.682;2022-10-16T13:44:38;23.70;76.60
21473;DHT22;10898;48.072;11.682;2022-10-16T13:46:41;23.70;71.00
21473;DHT22;10898;48.072;11.682;2022-10-16T13:48:43;23.70;71.50
21473;DHT22;10898;48.072;11.682;2022-10-16T13:50:44;23.70;72.50
21473;DHT22;10898;48.072;11.682;2022-10-16T13:52:46;23.70;70.60
21473;DHT22;10898;48.072;11.682;2022-10-16T13:54:48;23.70;70.00
21473;DHT22;10898;48.072;11.682;2022-10-16T13:56:49;23.70;73.10
21473;DHT22;10898;48.072;11.682;2022-10-16T13:59:22;23.70;69.10
21473;DHT22;10898;48.072;11.682;2022-10-16T14:01:24;23.70;67.00
21473;DHT22;10898;48.072;11.682;2022-10-16T14:03:33;23.60;68.30
21473;DHT22;10898;48.072;11.682;2022-10-16T14:05:40;23.70;67.50
21473;DHT22;10898;48.072;11.682;2022-10-16T14:07:43;23.70;68.10
21473;DHT22;10898;48.072;11.682;2022-10-16T14:09:50;23.70;68.30
21473;DHT22;10898;48.072;11.682;2022-10-16T14:11:53;23.70;68.30
21473;DHT22;10898;48.072;11.682;2022-10-16T14:13:55;23.80;69.00
21473;DHT22;10898;48.072;11.682;2022-10-16T14:15:57;23.80;71.00
21473;DHT22;10898;48.072;11.682;2022-10-16T14:18:01;23.80;68.60
21473;DHT22;10898;48.072;11.682;2022-10-16T14:20:04;23.80;68.50
21473;DHT22;10898;48.072;11.682;2022-10-16T14:26:39;23.90;69.20
21473;DHT22;10898;48.072;11.682;2022-10-16T14:28:42;23.90;69.10
21473;DHT22;10898;48.072;11.682;2022-10-16T14:32:53;24.00;66.40
21473;DHT22;10898;48.072;11.682;2022-10-16T14:34:55;24.00;66.30
21473;DHT22;10898;48.072;11.682;2022-10-16T14:36:57;24.00;66.50
21473;DHT22;10898;48.072;11.682;2022-10-16T14:39:04;24.00;66.30
21473;DHT22;10898;48.072;11.682;2022-10-16T14:41:05;24.00;66.90
21473;DHT22;10898;48.072;11.682;2022-10-16T14:43:14;24.00;67.50